KOXC/OXC METAR and TAF weather

Enter ICAO airport designator
Station Type Date Time Source
KOXC METAR 2019/10/23 19:51 UTC NOAA

KOXC 231951Z 26012G19KT 220V300 10SM CLR 17/02 A2993 RMK AO2 SLP148 T01720017


Station Type Date Time Source
KOXC Decoded METAR 2019/10/23 19:51 UTC NOAA

Oxford, Waterbury-Oxford Airport, CT, United States (KOXC) 41-29N 073-08W
Oct 23, 2019 - 03:51 PM EDT / 2019.10.23 1951 UTC
Wind: from the W (260 degrees) at 14 MPH (12 KT) gusting to 22 MPH (19 KT) (direction variable):0
Visibility: 10 mile(s):0
Sky conditions: clear
Temperature: 63.0 F (17.2 C)
Dew Point: 35.1 F (1.7 C)
Relative Humidity: 35%
Pressure (altimeter): 29.93 in. Hg (1013 hPa)
ob: KOXC 231951Z 26012G19KT 220V300 10SM CLR 17/02 A2993 RMK AO2 SLP148 T01720017
cycle: 20

Station Type Date Time Source
KOXC TAF UTC NOAA

Error!

Example: see airport list